Flight Track Log - Related Links

Times and Time Zones

All times are in EDT time to prevent confusion due to time zone crossing. See the FDX1347 flight status page for this flight to view local times or setup timezone preferences in your user account.

Time Position Orientation Groundspeed Altitude Reporting Facility
EDT Latitude Longitude Course Direction KTS MPH feet Rate Location/Type
09:48PM 42.7319 -73.8081 179° South 146 168 1,700  Level Boston Center
09:48PM 42.7194 -73.8078 179° South 144 166 2,500 1,947 Climbing Boston Center
09:50PM 42.6786 -73.9086 241° Southwest 221 254 5,400 2,361 Climbing Boston Center
09:52PM 42.6256 -74.1133 251° West 274 315 11,000 2,467 Climbing Boston Center
09:53PM 42.6358 -74.2575 276° West 355 409 12,800 2,000 Climbing Boston Center
09:54PM 42.6461 -74.4075 275° West 397 457 15,000 2,500 Climbing Boston Center
09:55PM 42.6536 -74.5658 274° West 422 486 17,800 2,256 Climbing Boston Center
10:00PM 42.3820 -75.3180 274° West 472 543 28,800 2,127 Climbing FlightAware
10:01PM 42.3360 -75.4070 235° Southwest 471 542 30,100 2,118 Climbing FlightAware
10:01PM 42.2730 -75.5270 235° Southwest 469 540 31,800 1,500 Climbing FlightAware
10:02PM 42.2150 -75.6360 234° Southwest 473 544 32,600 1,895 Climbing FlightAware
10:03PM 42.1670 -75.7280 235° Southwest 455 524 34,800 1,832 Climbing FlightAware
10:04PM 42.1000 -75.8520 234° Southwest 457 526 35,500 1,440 Climbing FlightAware
10:05PM 42.0420 -75.9600 234° Southwest 457 526 37,200 1,620 Climbing FlightAware
10:05PM 41.9770 -76.0820 234° Southwest 457 526 38,200 1,000 Climbing FlightAware
10:06PM 41.9310 -76.1680 234° Southwest 461 531 38,700 1,200 Climbing FlightAware
10:07PM 41.8660 -76.2870 234° Southwest 451 519 39,900 867 Climbing FlightAware
10:08PM 41.8210 -76.3700 234° Southwest 446 513 40,000 71 Climbing FlightAware
10:08PM 41.7670 -76.4680 234° Southwest 446 513 40,000  Level FlightAware
10:09PM 41.7160 -76.5650 235° Southwest 452 520 40,000  Level FlightAware
10:10PM 41.6590 -76.6670 233° Southwest 455 524 40,000  Level FlightAware
10:10PM 41.6090 -76.7580 234° Southwest 458 527 40,000  Level FlightAware
10:11PM 41.5600 -76.8470 234° Southwest 459 528 40,000  Level FlightAware
10:12PM 41.5020 -76.9510 233° Southwest 459 528 40,000  Level FlightAware
10:12PM 41.4510 -77.0450 234° Southwest 458 527 40,000  Level FlightAware
10:13PM 41.4000 -77.1350 233° Southwest 457 526 40,000  Level FlightAware
10:14PM 41.3460 -77.2320 233° Southwest 456 525 40,000  Level FlightAware
10:15PM 41.2970 -77.3200 233° Southwest 456 525 40,000  Level FlightAware
10:15PM 41.2410 -77.4180 233° Southwest 453 521 40,000  Level FlightAware
10:16PM 41.1900 -77.5100 234° Southwest 452 520 40,000  Level FlightAware
10:17PM 41.1330 -77.6120 233° Southwest 450 518 40,000  Level FlightAware
10:17PM 41.0750 -77.7130 233° Southwest 448 516 40,000  Level FlightAware
10:18PM 41.0250 -77.8010 233° Southwest 447 514 40,000  Level FlightAware
10:19PM 40.9800 -77.8810 233° Southwest 445 512 40,000  Level FlightAware
10:20PM 40.9190 -77.9880 233° Southwest 445 512 40,000  Level FlightAware
10:20PM 40.8740 -78.0730 235° Southwest 445 512 40,000  Level FlightAware
10:21PM 40.8300 -78.1620 237° Southwest 446 513 40,000  Level FlightAware
10:22PM 40.7770 -78.2690 237° Southwest 447 514 40,000  Level FlightAware
10:23PM 40.7110 -78.3980 236° Southwest 448 516 40,000  Level FlightAware
10:23PM 40.6510 -78.5160 236° Southwest 449 517 40,000  Level FlightAware
10:24PM 40.6070 -78.6020 236° Southwest 449 517 40,000  Level FlightAware
10:25PM 40.5550 -78.7010 235° Southwest 449 517 40,000  Level FlightAware
10:26PM 40.5050 -78.7980 236° Southwest 450 518 40,000  Level FlightAware
10:26PM 40.4520 -78.9020 236° Southwest 450 518 40,000  Level FlightAware
10:27PM 40.4070 -78.9880 236° Southwest 450 518 40,000  Level FlightAware
10:28PM 40.3620 -79.0760 236° Southwest 452 520 40,000  Level FlightAware
10:28PM 40.3070 -79.1830 236° Southwest 453 521 40,000  Level FlightAware
10:29PM 40.2560 -79.2780 235° Southwest 454 522 40,000  Level FlightAware
10:30PM 40.2000 -79.3870 236° Southwest 455 524 40,000  Level FlightAware
10:30PM 40.1530 -79.4750 235° Southwest 456 525 40,000  Level FlightAware
10:31PM 40.1020 -79.5730 236° Southwest 456 525 40,000  Level FlightAware
10:32PM 40.0520 -79.6680 236° Southwest 455 524 40,000  Level FlightAware
10:32PM 40.0090 -79.7470 235° Southwest 455 524 40,000  Level FlightAware
10:33PM 39.9480 -79.8620 235° Southwest 454 522 40,000  Level FlightAware
10:34PM 39.9010 -79.9500 235° Southwest 454 522 40,000  Level FlightAware
10:35PM 39.8530 -80.0400 235° Southwest 454 522 40,000  Level FlightAware
10:35PM 39.8000 -80.1380 235° Southwest 455 524 40,000  Level FlightAware
10:36PM 39.7490 -80.2330 235° Southwest 456 525 40,000  Level FlightAware
10:37PM 39.7030 -80.3180 235° Southwest 457 526 40,000  Level FlightAware
10:38PM 39.6400 -80.4350 235° Southwest 458 527 40,000  Level FlightAware
10:38PM 39.5890 -80.5290 235° Southwest 458 527 40,000  Level FlightAware
10:39PM 39.5210 -80.6520 234° Southwest 456 525 40,000  Level FlightAware
10:40PM 39.4730 -80.7390 234° Southwest 455 524 40,000  Level FlightAware
10:41PM 39.4190 -80.8390 235° Southwest 454 522 40,000  Level FlightAware
10:41PM 39.3680 -80.9320 235° Southwest 453 521 40,000  Level FlightAware
10:42PM 39.3140 -81.0290 234° Southwest 453 521 40,000  Level FlightAware
10:43PM 39.2770 -81.0970 235° Southwest 453 521 40,000  Level FlightAware
10:43PM 39.2170 -81.2040 234° Southwest 452 520 40,000  Level FlightAware
10:44PM 39.1710 -81.2870 234° Southwest 450 518 40,000  Level FlightAware
10:45PM 39.1150 -81.3880 234° Southwest 448 516 40,000  Level FlightAware
10:45PM 39.0840 -81.4690 244° Southwest 445 512 40,000  Level FlightAware
10:46PM 39.0410 -81.5920 246° West 443 510 40,000  Level FlightAware
10:47PM 39.0050 -81.6900 245° Southwest 442 509 40,000  Level FlightAware
10:48PM 38.9660 -81.7970 245° Southwest 441 507 40,000  Level FlightAware
10:48PM 38.9310 -81.8940 245° Southwest 440 506 40,000  Level FlightAware
10:49PM 38.8950 -81.9960 246° West 440 506 40,000  Level FlightAware
10:50PM 38.8530 -82.0870 239° Southwest 444 511 40,000  Level FlightAware
10:50PM 38.8060 -82.1730 235° Southwest 445 512 40,000  Level FlightAware
10:51PM 38.7510 -82.2740 235° Southwest 444 511 40,000  Level FlightAware
10:52PM 38.7050 -82.3560 234° Southwest 444 511 40,000  Level FlightAware
10:52PM 38.6570 -82.4410 234° Southwest 444 511 40,000  Level FlightAware
10:53PM 38.6040 -82.5380 235° Southwest 444 511 40,000  Level FlightAware
10:54PM 38.5570 -82.6210 234° Southwest 444 511 40,000  Level FlightAware
10:55PM 38.5070 -82.7090 234° Southwest 444 511 40,000  Level FlightAware
10:55PM 38.4660 -82.7810 234° Southwest 444 511 40,000  Level FlightAware
10:56PM 38.4250 -82.8530 234° Southwest 444 511 40,000  Level FlightAware
10:57PM 38.3840 -82.9250 234° Southwest 444 511 40,000  Level FlightAware
10:57PM 38.3154 -83.0507 235° Southwest 443 510 40,000  Level FlightAware ADS-B
10:58PM 38.2766 -83.1184 234° Southwest 444 511 40,000  Level FlightAware ADS-B
11:02PM 37.9850 -83.6280 234° Southwest 446 513 40,000  Level FlightAware
11:02PM 37.9360 -83.7120 234° Southwest 445 512 40,000  Level FlightAware
11:03PM 37.8860 -83.7960 233° Southwest 445 512 40,000  Level FlightAware
11:04PM 37.8240 -83.9060 235° Southwest 446 513 40,000  Level FlightAware
11:05PM 37.7770 -83.9860 233° Southwest 447 514 40,000  Level FlightAware
11:05PM 37.7320 -84.0640 234° Southwest 447 514 40,000  Level FlightAware
11:06PM 37.6790 -84.1540 233° Southwest 447 514 40,000  Level FlightAware
11:06PM 37.6475 -84.2083 234° Southwest 447 514 40,000  Level FlightAware ADS-B
11:07PM 37.6071 -84.2754 233° Southwest 447 514 40,000  Level FlightAware ADS-B
11:08PM 37.5116 -84.4383 234° Southwest 447 514 40,000  Level FlightAware ADS-B
11:09PM 37.4696 -84.5091 233° Southwest 445 512 40,000  Level FlightAware ADS-B
11:09PM 37.4183 -84.5959 233° Southwest 444 511 40,000  Level FlightAware ADS-B
11:10PM 37.3803 -84.6599 233° Southwest 443 510 40,000  Level FlightAware ADS-B
11:10PM 37.3434 -84.7216 233° Southwest 442 509 40,000  Level FlightAware ADS-B
11:11PM 37.3065 -84.7833 233° Southwest 441 507 40,000  Level FlightAware ADS-B
11:11PM 37.2698 -84.8448 233° Southwest 442 509 40,000  Level FlightAware ADS-B
11:12PM 37.2325 -84.9061 233° Southwest 442 509 40,000  Level FlightAware ADS-B
11:12PM 37.1953 -84.9677 233° Southwest 442 509 40,000  Level FlightAware ADS-B
11:13PM 37.1572 -85.0310 233° Southwest 441 507 40,000  Level FlightAware ADS-B
11:13PM 37.1198 -85.0940 233° Southwest 439 505 40,000  Level FlightAware ADS-B
11:14PM 37.0823 -85.1549 232° Southwest 439 505 40,000  Level FlightAware ADS-B
11:14PM 37.0448 -85.2174 233° Southwest 438 504 40,000  Level FlightAware ADS-B
11:15PM 37.0000 -85.2920 233° Southwest 436 502 40,000  Level FlightAware ADS-B
11:16PM 36.9332 -85.4022 233° Southwest 435 501 40,000  Level FlightAware ADS-B
11:17PM 36.8799 -85.4885 232° Southwest 436 502 40,000  Level FlightAware ADS-B
11:17PM 36.8389 -85.5548 232° Southwest 440 506 40,000  Level FlightAware ADS-B
11:18PM 36.7956 -85.6256 233° Southwest 440 506 40,000  Level FlightAware ADS-B
11:18PM 36.7578 -85.6884 233° Southwest 444 511 40,000  Level FlightAware ADS-B
11:19PM 36.7199 -85.7495 232° Southwest 447 514 40,000  Level FlightAware ADS-B
11:19PM 36.6820 -85.8110 232° Southwest 448 516 40,000  Level FlightAware ADS-B
11:20PM 36.6435 -85.8743 233° Southwest 449 517 40,000  Level FlightAware ADS-B
11:20PM 36.6030 -85.9400 232° Southwest 450 518 40,000  Level FlightAware
11:21PM 36.5910 -85.9584 231° Southwest 450 518 40,000  Level FlightAware ADS-B
11:21PM 36.5480 -86.0280 232° Southwest 451 519 40,000  Level FlightAware
11:22PM 36.4960 -86.1110 232° Southwest 452 520 40,000  Level FlightAware
11:22PM 36.4557 -86.1764 233° Southwest 453 521 40,000  Level FlightAware ADS-B
11:23PM 36.4044 -86.2590 232° Southwest 453 521 40,000  Level FlightAware ADS-B
11:23PM 36.3654 -86.3210 232° Southwest 456 525 40,000  Level FlightAware ADS-B
11:24PM 36.3257 -86.3830 232° Southwest 456 525 40,000  Level FlightAware ADS-B
11:25PM 36.2796 -86.4575 233° Southwest 457 526 40,000  Level FlightAware ADS-B
11:25PM 36.2391 -86.5215 232° Southwest 457 526 40,000  Level FlightAware ADS-B
11:26PM 36.1980 -86.5876 232° Southwest 457 526 40,000  Level FlightAware ADS-B
11:27PM 36.1220 -86.7300 237° Southwest 447 514 40,000  Level FlightAware
11:27PM 36.1115 -86.7635 249° West 454 522 40,000  Level FlightAware ADS-B
11:28PM 36.0857 -86.8461 249° West 445 512 40,000  Level FlightAware ADS-B
11:28PM 36.0620 -86.9192 248° West 444 511 40,000  Level FlightAware ADS-B
11:29PM 36.0392 -86.9921 249° West 442 509 40,000  Level FlightAware ADS-B
11:29PM 36.0163 -87.0625 248° West 440 506 40,000 -98 Level FlightAware ADS-B
11:30PM 35.9937 -87.1345 249° West 436 502 39,900 -1,000 Descending FlightAware ADS-B
11:30PM 35.9714 -87.2030 248° West 426 490 39,000 -2,229 Descending FlightAware ADS-B
11:31PM 35.9430 -87.2916 248° West 412 474 37,300 -2,362 Descending FlightAware ADS-B
11:32PM 35.9060 -87.4050 248° West 425 489 35,300 -1,468 Descending FlightAware
11:32PM 35.8760 -87.4980 248° West 446 513 35,000 -212 Descending FlightAware
11:33PM 35.8410 -87.6070 248° West 443 510 35,000  Level FlightAware
11:34PM 35.8110 -87.6980 248° West 441 507 35,000  Level FlightAware
11:34PM 35.7840 -87.7790 248° West 439 505 35,000  Level FlightAware
11:35PM 35.7540 -87.8700 248° West 439 505 35,000  Level FlightAware
11:36PM 35.7220 -87.9690 248° West 439 505 35,000  Level FlightAware
11:37PM 35.6960 -88.0480 248° West 439 505 35,000  Level FlightAware
11:37PM 35.6700 -88.1270 248° West 439 505 35,000  Level FlightAware
11:38PM 35.6440 -88.2050 248° West 439 505 35,000  Level FlightAware
11:39PM 35.6180 -88.2840 248° West 439 505 35,000  Level FlightAware
11:39PM 35.5920 -88.3630 248° West 439 505 35,000  Level FlightAware
11:40PM 35.5600 -88.4610 248° West 439 505 35,000  Level FlightAware
11:41PM 35.5340 -88.5400 248° West 439 505 35,000  Level FlightAware
11:41PM 35.5080 -88.6190 248° West 439 505 35,000  Level FlightAware
11:42PM 35.4820 -88.6970 248° West 439 505 35,000  Level FlightAware
11:43PM 35.4500 -88.7960 248° West 439 505 35,000  Level FlightAware
11:44PM 35.4240 -88.8740 248° West 439 505 35,000  Level FlightAware
11:44PM 35.3980 -88.9530 248° West 439 505 35,000 -21,182 Level FlightAware
11:45PM 35.1389 -88.9350 248° West 369 425 11,700 -17,302 Descending Memphis Center
11:46PM 35.0647 -89.0278 226° Southwest 364 419 10,200 -1,250 Descending Memphis Center
11:47PM 35.0303 -89.1119 243° Southwest 321 369 9,200 -1,200 Descending Memphis Center
11:48PM 35.0375 -89.2056 275° West 280 322 7,800 -1,300 Descending Memphis Center
11:49PM 35.0383 -89.3019 271° West 280 322 6,600 -900 Descending Memphis Center
11:50PM 35.0411 -89.3933 272° West 275 316 6,000 -300 Descending Memphis Center
11:51PM 35.0439 -89.4844 272° West 275 316 6,000  Level Memphis Center
11:52PM 35.0486 -89.5758 274° West 275 316 6,000 -450 Level Memphis Center
11:53PM 35.0511 -89.6494 272° West 247 284 5,100 -1,000 Descending Memphis Center
11:54PM 35.0536 -89.7256 272° West 229 264 4,000 -1,050 Descending Memphis Center
11:55PM 35.0539 -89.7864 270° West 206 237 3,000 -950 Descending Memphis Center
11:56PM 35.0564 -89.8447 273° West 185 213 2,100 -800 Descending Memphis Center
11:57PM 35.0586 -89.8903 273° West 155 178 1,400 -680 Descending Memphis Center
11:57PM 35.0500 -89.9167 248° West 120 138 1,000 -698 Descending KMEM
11:58PM 35.0500 -89.9500 270° West 125 144 400 -735 Descending KMEM
12:02AM 35.0333 -89.9667 270° West  Level FlightAware Approximate
12:09AM 35.0424 -89.9767 270° West  Level Estimated
12:10AM 35.0424 -89.9767 270° West  Level Estimated
12:11AM 35.0424 -89.9767 270° West  Level Estimated
12:12AM 35.0424 -89.9767 270° West  Level Estimated
12:13AM 35.0424 -89.9767 270° West  Level Estimated
12:14AM 35.0424 -89.9767 270° West  Level Estimated

Login

Don't have an account? Register now (free) for customized features, flight alerts, and more!